Time;durP1;ratioP1;P1;durP2;ratioP2;P2;SDS_P1;SDS_P2;PMS_P1;PMS_P2;Temp;Humidity;BMP_temperature;BMP_pressure;BME280_temperature;BME280_humidity;BME280_pressure;Samples;Min_cycle;Max_cycle;Signal;HPM_P1;HPM_P2
2022/03/18 00:01:23;;;;;;;7.50;3.50;;;;;;;8.54;46.10;103761.53;5035531;28;20041;-64
2022/03/18 00:03:52;;;;;;;5.35;2.78;;;;;;;8.52;46.11;103760.69;5035092;28;20084;-63
2022/03/18 00:06:20;;;;;;;9.63;4.18;;;;;;;8.50;46.20;103770.53;5017755;28;20496;-64
2022/03/18 00:08:46;;;;;;;8.32;3.60;;;;;;;8.48;46.21;103769.66;5034929;28;20041;-63
2022/03/18 00:11:15;;;;;;;9.15;3.55;;;;;;;8.45;46.16;103767.91;5035013;28;20476;-64
2022/03/18 00:13:42;;;;;;;8.82;3.67;;;;;;;8.45;46.36;103777.75;5017802;28;20068;-64
2022/03/18 00:16:10;;;;;;;7.47;3.58;;;;;;;8.43;46.33;103779.56;5035138;28;20108;-63
2022/03/18 00:18:36;;;;;;;8.50;3.28;;;;;;;8.41;46.26;103789.41;5034683;28;20563;-64
2022/03/18 00:21:04;;;;;;;7.82;3.92;;;;;;;8.38;46.45;103787.66;5034733;28;20128;-63
2022/03/18 00:23:30;;;;;;;10.30;4.38;;;;;;;8.32;46.35;103786.84;5035059;28;20041;-63
2022/03/18 00:25:57;;;;;;;8.95;4.38;;;;;;;8.22;46.41;103778.06;5034905;28;20136;-63
2022/03/18 00:28:24;;;;;;;10.25;6.80;;;;;;;8.11;46.57;103786.22;5016485;28;20053;-63
2022/03/18 00:30:50;;;;;;;10.43;6.45;;;;;;;8.01;46.45;103789.03;5034414;28;20045;-64
2022/03/18 00:33:17;;;;;;;10.00;5.68;;;;;;;7.90;46.60;103789.19;5035159;28;20116;-63
2022/03/18 00:35:44;;;;;;;13.40;6.45;;;;;;;7.84;46.69;103798.16;5034650;28;20472;-64
2022/03/18 00:38:11;;;;;;;14.80;6.20;;;;;;;7.82;46.82;103791.06;5034633;28;20059;-64
2022/03/18 00:40:37;;;;;;;11.40;6.57;;;;;;;7.80;47.04;103793.75;5033903;28;20121;-63
2022/03/18 00:43:04;;;;;;;9.13;6.85;;;;;;;7.80;47.06;103793.75;5034628;28;20391;-64
2022/03/18 00:45:34;;;;;;;10.95;6.97;;;;;;;7.80;47.02;103795.56;5034673;28;20037;-64
2022/03/18 00:53:31;;;;;;;9.32;6.68;;;;;;;7.78;47.00;103795.56;5034143;28;20050;-64
2022/03/18 00:55:58;;;;;;;16.52;7.03;;;;;;;7.74;47.11;103790.28;5033989;28;20578;-64
2022/03/18 00:58:24;;;;;;;15.20;7.32;;;;;;;7.69;47.16;103794.81;5033825;28;20055;-63
2022/03/18 01:00:51;;;;;;;15.93;8.63;;;;;;;7.59;47.06;103800.25;5034060;28;20036;-64
2022/03/18 01:03:19;;;;;;;17.15;9.02;;;;;;;7.50;47.34;103799.47;5034184;28;20042;-63
2022/03/18 01:05:46;;;;;;;14.23;8.55;;;;;;;7.46;47.33;103803.97;5034159;28;20041;-64
2022/03/18 01:08:13;;;;;;;14.02;7.40;;;;;;;7.46;47.45;103805.75;5033823;28;20068;-64
2022/03/18 01:10:39;;;;;;;12.15;7.05;;;;;;;7.44;47.57;103812.91;5033940;28;20048;-64
2022/03/18 01:13:06;;;;;;;14.82;7.85;;;;;;;7.42;47.73;103820.03;5034212;28;20124;-63
2022/03/18 01:15:33;;;;;;;12.07;6.70;;;;;;;7.38;47.63;103827.19;5016504;28;20042;-64
2022/03/18 01:18:00;;;;;;;14.40;7.28;;;;;;;7.31;47.50;103829.06;5015854;28;20400;-63
2022/03/18 01:20:27;;;;;;;15.00;7.30;;;;;;;7.25;47.60;103828.22;5034208;28;20124;-64
2022/03/18 01:22:53;;;;;;;19.00;7.47;;;;;;;7.18;47.79;103824.72;5033815;28;20049;-64
2022/03/18 01:25:20;;;;;;;16.90;7.93;;;;;;;7.14;47.74;103835.47;5033659;28;20509;-64
2022/03/18 01:27:47;;;;;;;17.45;8.43;;;;;;;7.11;47.88;103830.16;5033487;28;20088;-64
2022/03/18 01:30:14;;;;;;;20.23;8.75;;;;;;;7.11;48.05;103827.47;5032974;28;20048;-63
2022/03/18 01:32:41;;;;;;;16.98;8.32;;;;;;;7.13;47.99;103823.00;5033265;28;20068;-65
2022/03/18 01:35:10;;;;;;;19.30;9.00;;;;;;;7.15;48.10;103831.88;5033724;28;20049;-64
2022/03/18 01:37:36;;;;;;;17.50;7.80;;;;;;;7.14;47.88;103832.78;5033263;28;20407;-64
2022/03/18 01:40:04;;;;;;;12.70;6.50;;;;;;;7.09;47.84;103821.25;5033644;28;20048;-64
2022/03/18 01:42:30;;;;;;;14.13;6.55;;;;;;;7.04;47.91;103825.75;5036974;28;20132;-64
2022/03/18 01:44:57;;;;;;;19.60;7.45;;;;;;;7.00;47.88;103828.44;5017688;28;20099;-63
2022/03/18 01:47:24;;;;;;;16.50;7.00;;;;;;;6.98;47.88;103824.91;5033355;28;20037;-64
2022/03/18 01:49:51;;;;;;;15.27;6.28;;;;;;;6.99;47.90;103836.47;5033023;28;20050;-64
2022/03/18 01:52:18;;;;;;;14.02;6.47;;;;;;;6.99;47.94;103841.81;5032472;28;20044;-65
2022/03/18 01:54:45;;;;;;;13.60;5.88;;;;;;;6.99;47.77;103841.81;5032506;28;20046;-63
2022/03/18 01:57:15;;;;;;;11.30;5.85;;;;;;;6.98;47.96;103835.59;5033265;28;20419;-64
2022/03/18 01:59:42;;;;;;;14.23;7.50;;;;;;;6.97;47.93;103843.63;5032661;28;20044;-64
2022/03/18 02:02:11;;;;;;;18.05;8.43;;;;;;;6.98;47.76;103840.94;5033074;28;20041;-64
2022/03/18 02:04:38;;;;;;;14.10;7.55;;;;;;;6.97;47.80;103839.16;5032703;28;20385;-64
2022/03/18 02:07:05;;;;;;;15.10;8.27;;;;;;;6.95;47.90;103835.63;5015703;28;20036;-64
2022/03/18 02:09:32;;;;;;;18.98;8.30;;;;;;;6.94;48.04;103835.63;5032385;28;20045;-64
2022/03/18 02:12:00;;;;;;;12.95;7.95;;;;;;;6.89;47.99;103833.00;5033233;28;20038;-63
2022/03/18 02:14:36;;;;;;;13.95;7.50;;;;;;;6.85;48.14;103825.91;5033006;28;20132;-63
2022/03/18 02:17:05;;;;;;;18.30;8.35;;;;;;;6.84;48.13;103820.59;5032902;28;20128;-64
2022/03/18 02:19:32;;;;;;;13.15;7.82;;;;;;;6.80;48.13;103822.38;5032864;28;20045;-63
2022/03/18 02:21:59;;;;;;;20.50;8.18;;;;;;;6.76;48.06;103828.66;5032777;28;20052;-63
2022/03/18 02:24:26;;;;;;;11.52;6.15;;;;;;;6.70;48.01;103834.03;5033128;28;20041;-64
2022/03/18 02:26:55;;;;;;;11.77;6.18;;;;;;;6.64;48.01;103840.28;5015462;28;20049;-64
2022/03/18 02:29:24;;;;;;;13.82;6.93;;;;;;;6.62;48.31;103839.41;5015605;28;20104;-64
2022/03/18 02:31:50;;;;;;;10.82;5.90;;;;;;;6.61;48.28;103834.97;5032924;28;20129;-64
2022/03/18 02:34:17;;;;;;;8.75;4.97;;;;;;;6.60;48.24;103853.66;5032798;28;20041;-64
2022/03/18 02:36:44;;;;;;;8.60;4.88;;;;;;;6.57;48.41;103849.22;5032513;28;20042;-64
2022/03/18 02:39:10;;;;;;;6.55;4.97;;;;;;;6.57;48.37;103849.22;5032818;28;20049;-63
2022/03/18 02:41:37;;;;;;;9.27;5.60;;;;;;;6.60;48.64;103853.66;5033017;28;20124;-64
2022/03/18 02:44:04;;;;;;;13.20;6.70;;;;;;;6.59;48.50;103857.22;5032815;28;20482;-63
2022/03/18 02:46:32;;;;;;;14.70;7.53;;;;;;;6.55;48.59;103866.16;5033016;28;20045;-63
2022/03/18 02:49:01;;;;;;;13.57;8.40;;;;;;;6.51;48.46;103864.41;5032533;28;20045;-63
2022/03/18 02:51:28;;;;;;;13.00;8.35;;;;;;;6.47;48.66;103863.53;5032649;28;20136;-63
2022/03/18 02:53:56;;;;;;;15.55;9.00;;;;;;;6.42;48.87;103867.13;5014305;28;20103;-63
2022/03/18 02:56:23;;;;;;;21.35;8.82;;;;;;;6.34;48.72;103870.72;5032454;28;20109;-63
2022/03/18 02:58:50;;;;;;;12.45;7.10;;;;;;;6.30;48.57;103866.31;5032641;28;20048;-63
2022/03/18 03:01:17;;;;;;;12.98;7.45;;;;;;;6.30;48.67;103881.44;5032091;28;20049;-63
2022/03/18 03:03:44;;;;;;;14.98;7.63;;;;;;;6.29;48.78;103872.53;5035388;28;20042;-63
2022/03/18 03:08:56;;;;;;;16.52;7.07;;;;;;;6.30;48.72;103878.75;5016438;28;20632;-64
2022/03/18 03:11:23;;;;;;;17.20;7.95;;;;;;;6.30;48.59;103876.09;5000218;28;20054;-64
2022/03/18 03:13:50;;;;;;;14.68;8.02;;;;;;;6.29;48.75;103874.31;5036864;28;20462;-64
2022/03/18 03:16:19;;;;;;;17.63;7.43;;;;;;;6.25;48.67;103880.56;5035692;28;20081;-63
2022/03/18 03:18:46;;;;;;;12.05;7.10;;;;;;;6.20;48.33;103888.59;5036016;28;20042;-63
2022/03/18 03:21:14;;;;;;;12.52;7.10;;;;;;;6.17;48.77;103885.94;5014327;28;20468;-63
2022/03/18 03:23:41;;;;;;;15.40;6.28;;;;;;;6.15;48.59;103881.50;5033106;28;20061;-64
2022/03/18 03:26:08;;;;;;;15.32;6.65;;;;;;;6.09;48.82;103886.84;5035862;28;20414;-63
2022/03/18 03:28:35;;;;;;;15.50;6.75;;;;;;;6.02;48.91;103900.22;5018334;28;20136;-64
2022/03/18 03:31:02;;;;;;;12.20;6.72;;;;;;;6.01;49.01;103900.22;5035838;28;20037;-63
2022/03/18 03:33:29;;;;;;;11.57;6.82;;;;;;;6.03;48.85;103895.78;5029318;28;20590;-63
2022/03/18 03:35:55;;;;;;;18.27;7.03;;;;;;;6.03;49.03;103903.78;5035786;28;20043;-63
2022/03/18 03:38:23;;;;;;;12.23;7.22;;;;;;;6.05;48.92;103910.88;5035784;28;20475;-63
2022/03/18 03:40:50;;;;;;;22.75;7.78;;;;;;;6.06;48.86;103909.09;5035655;28;20048;-64
2022/03/18 03:43:16;;;;;;;14.57;6.82;;;;;;;6.07;49.03;103907.31;5035659;28;20047;-65
2022/03/18 03:45:43;;;;;;;8.85;5.32;;;;;;;6.07;48.88;103900.19;5036120;28;20073;-65
2022/03/18 03:48:11;;;;;;;11.65;5.65;;;;;;;6.05;48.99;103894.00;5034576;28;20045;-65
2022/03/18 03:50:41;;;;;;;9.07;5.03;;;;;;;6.00;48.98;103903.78;5034321;28;20380;-64
2022/03/18 03:53:09;;;;;;;9.45;4.95;;;;;;;5.94;49.06;103904.66;5031614;28;20049;-64
2022/03/18 03:55:39;;;;;;;12.93;5.70;;;;;;;5.96;49.05;103912.69;5035646;28;20037;-64
2022/03/18 03:58:07;;;;;;;9.73;4.88;;;;;;;5.95;49.06;103925.16;5034850;28;20080;-64
2022/03/18 04:00:36;;;;;;;17.98;5.50;;;;;;;5.95;49.10;103922.47;5029221;28;20088;-64
2022/03/18 04:03:04;;;;;;;11.63;5.63;;;;;;;5.94;49.32;103920.66;5035616;28;20034;-64
2022/03/18 04:05:32;;;;;;;8.60;5.00;;;;;;;5.93;49.24;103915.34;5035315;28;20047;-64
2022/03/18 04:07:59;;;;;;;7.93;5.20;;;;;;;5.94;49.31;103920.66;5030080;28;20510;-64
2022/03/18 04:10:26;;;;;;;10.70;5.85;;;;;;;5.95;49.31;103927.81;5035278;28;20473;-64
2022/03/18 04:12:54;;;;;;;10.23;6.03;;;;;;;5.98;49.39;103929.59;5034992;28;20049;-64
2022/03/18 04:15:21;;;;;;;9.48;5.88;;;;;;;5.98;49.23;103943.81;5034157;28;20037;-63
2022/03/18 04:17:49;;;;;;;10.43;6.03;;;;;;;6.00;49.16;103935.78;5034880;28;20045;-63
2022/03/18 04:20:21;;;;;;;11.43;6.22;;;;;;;6.00;49.26;103943.81;5014578;28;20041;-64
2022/03/18 04:22:52;;;;;;;12.23;5.38;;;;;;;6.00;49.26;103959.81;5029784;28;20073;-63
2022/03/18 04:25:20;;;;;;;9.40;6.40;;;;;;;5.96;49.14;103952.72;5035117;28;20054;-63
2022/03/18 04:27:48;;;;;;;12.43;6.78;;;;;;;5.93;49.33;103961.56;5030332;28;20045;-63
2022/03/18 04:30:15;;;;;;;11.98;6.82;;;;;;;5.89;49.42;103967.81;5016957;28;20480;-64
2022/03/18 04:32:42;;;;;;;11.65;6.55;;;;;;;5.87;49.71;103976.66;5035075;28;20080;-64
2022/03/18 04:35:10;;;;;;;14.77;8.05;;;;;;;5.85;49.41;103975.78;5034621;28;20041;-65
2022/03/18 04:37:41;;;;;;;14.90;7.10;;;;;;;5.83;49.67;103977.56;5034162;28;20049;-64
2022/03/18 04:40:12;;;;;;;9.23;6.03;;;;;;;5.82;49.73;103968.66;5034548;28;20488;-63
2022/03/18 04:42:41;;;;;;;11.48;5.20;;;;;;;5.78;49.53;103971.34;5034362;28;20116;-64
2022/03/18 04:45:08;;;;;;;10.15;5.60;;;;;;;5.65;49.54;103971.34;5028658;28;20128;-64
2022/03/18 04:47:35;;;;;;;11.02;5.40;;;;;;;5.60;49.33;103967.81;5034167;28;20462;-64
2022/03/18 04:50:03;;;;;;;11.27;6.05;;;;;;;5.56;49.38;103965.13;5033138;28;20087;-64
2022/03/18 04:52:30;;;;;;;11.40;5.70;;;;;;;5.48;49.54;103967.81;5016710;28;20049;-63
2022/03/18 04:54:57;;;;;;;15.50;7.07;;;;;;;5.41;49.56;103976.69;5034076;28;20436;-63
2022/03/18 04:57:24;;;;;;;14.32;5.15;;;;;;;5.36;49.52;103979.34;5034572;28;20053;-65
2022/03/18 04:59:56;;;;;;;10.57;4.88;;;;;;;5.29;49.60;103977.56;5034097;28;20407;-64
2022/03/18 05:02:22;;;;;;;9.50;5.60;;;;;;;5.24;49.72;103978.47;5014967;28;20096;-64
2022/03/18 05:04:50;;;;;;;9.02;5.00;;;;;;;5.22;49.54;103988.22;5033268;28;20041;-64
2022/03/18 05:07:17;;;;;;;9.35;5.22;;;;;;;5.21;49.79;104000.66;5034496;28;20048;-64
2022/03/18 05:09:45;;;;;;;10.90;5.30;;;;;;;5.22;49.80;103991.78;5021658;28;20418;-63
2022/03/18 05:12:13;;;;;;;10.90;5.53;;;;;;;5.21;49.72;104000.66;5038345;28;20124;-63
2022/03/18 05:14:40;;;;;;;9.23;5.85;;;;;;;5.20;49.87;104009.53;5035319;28;20137;-63
2022/03/18 05:17:09;;;;;;;16.58;5.18;;;;;;;5.18;49.90;104008.63;5033701;28;20046;-64
2022/03/18 05:19:37;;;;;;;10.18;4.78;;;;;;;5.18;49.94;104019.28;5034019;28;20042;-64
2022/03/18 05:22:06;;;;;;;14.30;5.07;;;;;;;5.20;50.08;104020.19;5033668;28;20129;-63
2022/03/18 05:24:36;;;;;;;8.50;4.97;;;;;;;5.23;49.94;104020.19;5034114;28;20056;-63
2022/03/18 05:27:03;;;;;;;6.68;4.45;;;;;;;5.27;50.04;104029.09;5033468;28;20052;-64
2022/03/18 05:29:31;;;;;;;9.43;4.85;;;;;;;5.28;50.14;104022.88;5033499;28;20041;-63
2022/03/18 05:31:58;;;;;;;7.53;4.40;;;;;;;5.29;50.16;104028.22;5032978;28;20050;-63
2022/03/18 05:34:25;;;;;;;9.70;4.85;;;;;;;5.31;50.09;104031.75;5019853;28;20041;-64
2022/03/18 05:36:52;;;;;;;11.55;5.60;;;;;;;5.34;50.02;104033.53;5033784;28;20380;-62
2022/03/18 05:39:18;;;;;;;9.90;5.03;;;;;;;5.37;50.02;104039.75;5033392;28;20034;-63
2022/03/18 05:41:45;;;;;;;11.60;5.18;;;;;;;5.39;50.23;104034.44;5015859;28;20046;-64
2022/03/18 05:44:12;;;;;;;7.10;4.82;;;;;;;5.40;50.05;104036.22;5014421;28;20049;-62
2022/03/18 05:46:44;;;;;;;7.70;4.97;;;;;;;5.41;50.06;104036.22;5033494;28;20041;-63
2022/03/18 05:49:11;;;;;;;7.93;4.80;;;;;;;5.42;50.16;104037.09;5033568;28;20049;-63
2022/03/18 05:51:38;;;;;;;9.70;5.05;;;;;;;5.39;50.38;104030.00;5033410;28;20072;-63
2022/03/18 05:54:04;;;;;;;9.00;5.25;;;;;;;5.34;50.04;104037.09;5015677;28;20128;-63
2022/03/18 05:59:18;;;;;;;7.28;4.75;;;;;;;5.26;50.25;104035.31;5028586;28;20495;-62
2022/03/18 06:01:44;;;;;;;9.18;4.82;;;;;;;5.22;50.29;104028.19;5029361;28;20040;-64
2022/03/18 06:04:14;;;;;;;10.73;5.28;;;;;;;5.20;50.34;104035.25;5031898;28;20080;-64
2022/03/18 06:06:42;;;;;;;10.20;5.60;;;;;;;5.17;50.34;104040.59;5013703;28;20073;-63
2022/03/18 06:11:54;;;;;;;9.80;5.28;;;;;;;5.18;50.62;104037.91;5033317;28;20129;-63
2022/03/18 06:14:26;;;;;;;15.30;5.93;;;;;;;5.21;50.58;104053.94;5033192;28;20111;-63
2022/03/18 06:16:56;;;;;;;11.85;6.13;;;;;;;5.23;50.77;104061.94;5015333;28;20076;-64
2022/03/18 06:19:24;;;;;;;10.20;6.88;;;;;;;5.23;50.88;104065.50;5032656;28;20045;-63
2022/03/18 06:21:51;;;;;;;13.43;6.72;;;;;;;5.23;50.78;104068.16;5026634;28;20492;-63
2022/03/18 06:24:20;;;;;;;8.88;5.82;;;;;;;5.24;50.97;104064.63;5033017;28;20538;-65
2022/03/18 06:26:48;;;;;;;13.82;6.13;;;;;;;5.28;51.05;104073.50;5032440;28;20038;-63
2022/03/18 06:29:15;;;;;;;10.13;6.60;;;;;;;5.30;50.80;104080.63;5014642;28;20389;-64
2022/03/18 06:31:42;;;;;;;11.18;5.93;;;;;;;5.34;50.97;104078.84;5032472;28;20033;-63
2022/03/18 06:34:11;;;;;;;8.07;5.65;;;;;;;5.38;51.11;104083.31;5016548;28;20087;-62
2022/03/18 06:36:39;;;;;;;10.05;5.60;;;;;;;5.43;50.94;104086.88;5032330;28;20475;-63
2022/03/18 06:39:07;;;;;;;8.80;5.30;;;;;;;5.48;51.05;104086.88;5037510;28;20136;-63
2022/03/18 06:41:35;;;;;;;9.20;5.55;;;;;;;5.54;51.06;104084.22;5036666;28;20045;-64
2022/03/18 06:44:01;;;;;;;11.13;5.55;;;;;;;5.55;51.12;104089.56;5036257;28;20037;-63
2022/03/18 06:46:28;;;;;;;10.10;5.35;;;;;;;5.57;51.17;104090.44;5038037;28;20037;-64
2022/03/18 06:48:55;;;;;;;9.82;6.10;;;;;;;5.60;51.18;104094.88;5038809;28;20045;-63
2022/03/18 06:51:26;;;;;;;12.20;5.82;;;;;;;5.61;51.31;104100.22;5029806;28;20038;-63
2022/03/18 06:53:53;;;;;;;8.43;6.05;;;;;;;5.65;51.41;104099.34;5034842;28;20085;-63
2022/03/18 06:56:21;;;;;;;11.48;6.07;;;;;;;5.70;51.42;104104.69;5018424;28;20033;-64
2022/03/18 06:58:48;;;;;;;10.23;6.25;;;;;;;5.74;51.60;104104.69;5034466;28;20468;-63
2022/03/18 07:01:14;;;;;;;8.57;5.97;;;;;;;5.82;51.53;104112.69;5019746;28;20040;-63
2022/03/18 07:03:41;;;;;;;12.32;6.85;;;;;;;5.88;51.50;104104.69;5034473;28;20442;-64
2022/03/18 07:06:08;;;;;;;16.70;7.40;;;;;;;5.95;51.76;104105.66;5030367;28;20510;-63
2022/03/18 07:08:35;;;;;;;11.00;6.70;;;;;;;6.02;51.90;104107.44;5032261;28;20503;-63
2022/03/18 07:11:03;;;;;;;13.05;8.10;;;;;;;6.14;52.05;104103.88;5035421;28;20048;-64
2022/03/18 07:13:29;;;;;;;12.00;6.78;;;;;;;6.26;52.34;104109.19;5032814;28;20052;-64
2022/03/18 07:17:54;;;;;;;11.07;6.35;;;;;;;6.44;52.68;104108.28;5032590;28;20068;-64
2022/03/18 07:18:43;;;;;;;11.77;6.78;;;;;;;6.68;53.13;104106.44;5035327;28;20491;-63
2022/03/18 07:21:13;;;;;;;12.98;6.82;;;;;;;6.96;53.28;104117.94;5017960;28;20276;-64
2022/03/18 07:23:39;;;;;;;11.95;6.20;;;;;;;7.24;53.21;104121.38;5015497;28;20068;-65
2022/03/18 07:26:06;;;;;;;11.80;6.97;;;;;;;7.49;53.27;104116.81;5014912;28;20030;-65
2022/03/18 07:28:32;;;;;;;11.30;6.68;;;;;;;7.70;53.27;104115.78;5035182;28;20041;-65
2022/03/18 07:30:59;;;;;;;12.95;6.45;;;;;;;7.90;53.56;104111.19;5020693;28;20044;-63
2022/03/18 07:33:26;;;;;;;12.20;5.70;;;;;;;8.16;53.40;104118.09;5035537;28;20045;-65
2022/03/18 07:35:52;;;;;;;10.40;5.90;;;;;;;8.43;53.21;104117.03;5032231;28;20507;-66
2022/03/18 07:38:20;;;;;;;13.38;6.00;;;;;;;8.65;53.34;104128.41;5030077;28;20049;-65
2022/03/18 07:40:52;;;;;;;14.57;6.70;;;;;;;8.86;53.47;104131.72;5041118;28;20040;-65
2022/03/18 07:43:19;;;;;;;11.77;5.78;;;;;;;9.09;52.99;104136.84;5035222;28;20044;-64
2022/03/18 07:45:45;;;;;;;10.32;5.65;;;;;;;9.37;53.30;104149.91;5032510;28;20116;-66
2022/03/18 07:48:12;;;;;;;7.72;5.03;;;;;;;9.68;53.24;104150.38;5035352;28;20039;-65
2022/03/18 07:50:39;;;;;;;10.25;5.80;;;;;;;9.98;53.03;104165.13;5034629;28;20061;-66
2022/03/18 07:53:08;;;;;;;8.75;5.55;;;;;;;10.23;52.83;104163.84;5018701;28;20484;-65
2022/03/18 07:55:36;;;;;;;10.75;6.25;;;;;;;10.44;52.57;104170.69;5017726;28;20061;-65
2022/03/18 07:58:03;;;;;;;11.55;6.05;;;;;;;10.62;52.43;104172.16;5034917;28;20107;-65
2022/03/18 08:00:30;;;;;;;9.85;5.30;;;;;;;10.85;52.51;104166.34;5035645;28;20045;-65
2022/03/18 08:02:57;;;;;;;12.30;5.68;;;;;;;11.05;52.21;104175.78;5035088;28;20069;-65
2022/03/18 08:05:24;;;;;;;10.07;5.63;;;;;;;11.28;52.04;104172.66;5035630;28;20045;-66
2022/03/18 08:07:56;;;;;;;10.38;5.03;;;;;;;11.54;52.03;104171.22;5034934;28;20051;-65
2022/03/18 08:10:23;;;;;;;13.88;5.63;;;;;;;11.80;51.64;104174.22;5016539;28;20041;-66
2022/03/18 08:12:50;;;;;;;10.60;5.28;;;;;;;12.05;51.51;104170.06;5035339;28;20116;-65
2022/03/18 08:15:19;;;;;;;9.73;5.25;;;;;;;12.27;51.10;104169.53;5017824;28;20033;-65
2022/03/18 08:17:46;;;;;;;12.57;5.55;;;;;;;12.44;50.78;104171.78;5034744;28;20049;-66
2022/03/18 08:20:14;;;;;;;11.40;5.50;;;;;;;12.62;50.93;104174.88;5034744;28;20051;-66
2022/03/18 08:22:41;;;;;;;11.95;4.70;;;;;;;12.86;50.63;104173.34;5022738;28;20064;-66
2022/03/18 08:25:09;;;;;;;10.35;4.85;;;;;;;13.09;50.36;104180.78;5054602;28;20575;-66
2022/03/18 08:27:37;;;;;;;9.38;4.78;;;;;;;13.24;49.95;104184.88;5055050;28;20048;-66
2022/03/18 08:30:08;;;;;;;12.50;4.90;;;;;;;13.38;49.66;104181.78;5042169;28;20067;-67
2022/03/18 08:32:34;;;;;;;55.25;7.15;;;;;;;13.51;49.57;104189.50;5034844;28;20045;-65
2022/03/18 08:35:02;;;;;;;19.15;5.07;;;;;;;13.67;49.14;104188.09;5034984;28;20107;-66
2022/03/18 08:40:15;;;;;;;;;;;;;;;14.05;49.15;104198.63;5035072;28;20132;-66
2022/03/18 08:42:41;;;;;;;9.88;4.78;;;;;;;14.24;48.69;104205.22;5034698;28;19956;-65
2022/03/18 08:45:09;;;;;;;10.40;4.82;;;;;;;14.38;48.36;104199.34;5034754;28;20391;-65
2022/03/18 08:47:36;;;;;;;11.63;4.00;;;;;;;14.51;48.27;104203.44;5034104;28;20069;-66
2022/03/18 08:50:04;;;;;;;9.75;4.22;;;;;;;14.63;47.99;104206.59;5034232;28;20044;-66
2022/03/18 08:52:31;;;;;;;8.95;4.10;;;;;;;14.73;47.64;104209.88;5034606;28;20084;-66
2022/03/18 08:55:05;;;;;;;8.75;4.03;;;;;;;14.80;47.48;104214.13;5034363;28;20042;-66
2022/03/18 08:57:35;;;;;;;8.85;3.55;;;;;;;14.83;47.42;104215.84;5033992;28;20037;-66
2022/03/18 09:00:07;;;;;;;7.45;3.40;;;;;;;14.89;46.90;104223.75;5033416;28;20154;-66
2022/03/18 09:02:35;;;;;;;8.57;3.70;;;;;;;14.94;46.62;104225.38;5034407;28;20526;-66
2022/03/18 09:05:04;;;;;;;6.28;3.72;;;;;;;15.00;46.53;104229.69;5034163;28;20391;-65
2022/03/18 09:07:32;;;;;;;14.45;4.20;;;;;;;15.10;46.40;104233.81;5033333;28;20049;-64
2022/03/18 09:09:58;;;;;;;12.52;4.55;;;;;;;15.19;46.29;104235.31;5032858;28;20040;-66
2022/03/18 09:12:25;;;;;;;10.65;4.10;;;;;;;15.29;46.22;104235.84;5033665;28;20049;-65
2022/03/18 09:14:52;;;;;;;10.50;3.80;;;;;;;15.38;45.67;104238.22;5034429;28;20048;-65
2022/03/18 09:17:19;;;;;;;8.75;3.63;;;;;;;15.47;45.58;104240.56;5034002;28;20040;-66
2022/03/18 09:19:45;;;;;;;11.95;3.85;;;;;;;15.54;45.33;104236.69;5015733;28;20042;-66
2022/03/18 09:22:16;;;;;;;8.88;4.15;;;;;;;15.63;45.36;104244.53;5034240;28;20406;-64
2022/03/18 09:24:44;;;;;;;8.52;3.60;;;;;;;15.73;44.89;104245.94;5034239;28;20042;-66
2022/03/18 09:27:10;;;;;;;7.13;3.88;;;;;;;15.80;44.53;104242.03;5033529;28;20069;-66
2022/03/18 09:29:37;;;;;;;9.25;3.88;;;;;;;15.87;44.49;104245.41;5033213;28;20046;-66
2022/03/18 09:32:05;;;;;;;7.45;3.63;;;;;;;15.97;44.21;104252.22;5033797;28;20130;-65
2022/03/18 09:34:32;;;;;;;12.77;4.25;;;;;;;16.12;44.12;104248.00;5034006;28;20125;-66
2022/03/18 09:36:59;;;;;;;8.80;4.22;;;;;;;16.25;43.90;104253.81;5033232;28;20042;-66
2022/03/18 09:39:27;;;;;;;5.43;3.47;;;;;;;16.31;43.93;104249.00;5015827;28;20053;-66
2022/03/18 09:41:54;;;;;;;8.80;3.78;;;;;;;16.41;43.52;104261.28;5033264;28;20161;-65
2022/03/18 09:44:21;;;;;;;5.97;3.30;;;;;;;16.47;43.43;104252.88;5033494;28;20049;-66
2022/03/18 09:46:54;;;;;;;7.15;2.95;;;;;;;16.52;43.35;104259.00;5033786;28;20470;-66
2022/03/18 09:49:22;;;;;;;8.85;2.90;;;;;;;16.58;42.83;104249.72;5033342;28;20052;-66
2022/03/18 09:51:48;;;;;;;9.95;2.83;;;;;;;16.64;42.99;104254.88;5045084;28;20030;-65
2022/03/18 09:54:27;;;;;;;4.13;2.50;;;;;;;16.70;42.21;104251.06;5054038;28;20106;-65
2022/03/18 09:56:54;;;;;;;7.15;2.70;;;;;;;16.74;41.82;104253.56;5021664;28;20411;-66
2022/03/18 09:59:22;;;;;;;6.18;2.60;;;;;;;16.78;42.13;104244.34;5015099;28;20087;-67
2022/03/18 10:01:49;;;;;;;5.93;2.45;;;;;;;16.88;41.56;104268.38;5015523;28;20080;-66
2022/03/18 10:04:16;;;;;;;4.47;2.20;;;;;;;16.96;41.38;104267.09;5033376;28;20045;-67
2022/03/18 10:06:43;;;;;;;6.65;2.38;;;;;;;17.01;41.13;104267.78;4999300;28;20041;-66
2022/03/18 10:16:44;;;;;;;5.63;2.10;;;;;;;17.32;40.49;104267.31;5015456;28;20477;-65
2022/03/18 10:19:16;;;;;;;6.50;2.30;;;;;;;17.39;40.03;104268.78;5015425;28;20053;-65
2022/03/18 10:21:56;;;;;;;7.57;2.40;;;;;;;17.45;39.81;104271.22;5032739;28;20253;-66
2022/03/18 10:24:27;;;;;;;5.05;2.17;;;;;;;17.53;39.84;104270.88;5033035;28;20060;-64
2022/03/18 10:27:19;;;;;;;7.43;2.67;;;;;;;17.59;39.04;104269.72;5032254;28;20087;-66
2022/03/18 10:29:53;;;;;;;5.38;2.72;;;;;;;17.64;39.24;104273.97;5032557;28;20124;-66
2022/03/18 10:32:46;;;;;;;5.47;2.10;;;;;;;17.74;39.01;104274.47;5033162;28;20052;-66
2022/03/18 10:38:35;;;;;;;4.72;2.20;;;;;;;18.01;38.83;104273.16;5006666;28;20049;-66
2022/03/18 10:41:23;;;;;;;4.88;2.70;;;;;;;18.11;38.52;104268.16;5016638;28;20041;-68
2022/03/18 10:43:54;;;;;;;6.72;2.03;;;;;;;18.14;38.13;104273.47;5032511;28;20120;-68
2022/03/18 10:46:22;;;;;;;7.75;2.10;;;;;;;18.18;37.97;104274.19;5015208;28;20058;-68
2022/03/18 10:49:06;;;;;;;6.70;2.70;;;;;;;18.30;38.03;104268.13;5014938;28;20038;-65
2022/03/18 10:51:37;;;;;;;9.93;2.65;;;;;;;18.46;37.57;104273.69;5030559;28;20140;-66
2022/03/18 10:54:04;;;;;;;4.88;2.22;;;;;;;18.56;37.45;104270.44;5014996;28;20499;-67
2022/03/18 10:56:54;;;;;;;5.15;2.50;;;;;;;18.63;37.21;104268.34;5032692;28;20045;-66
2022/03/18 10:59:22;;;;;;;5.95;2.72;;;;;;;18.74;37.58;104268.66;5014015;28;20049;-66
2022/03/18 11:01:51;;;;;;;6.95;2.80;;;;;;;18.82;37.38;104265.56;5032151;28;20095;-66
2022/03/18 11:04:18;;;;;;;9.43;2.17;;;;;;;18.90;36.94;104261.47;5032407;28;20041;-67
2022/03/18 11:07:29;;;;;;;3.92;2.33;;;;;;;19.01;37.13;104264.50;5032860;28;20450;-67
2022/03/18 11:11:07;;;;;;;5.10;2.40;;;;;;;19.11;36.58;104255.84;5031978;28;20100;-67
2022/03/18 11:12:36;;;;;;;6.47;2.40;;;;;;;19.24;36.60;104254.22;5031255;28;20495;-68
2022/03/18 11:15:04;;;;;;;9.85;2.70;;;;;;;19.28;36.07;104256.69;5032444;28;20042;-68
2022/03/18 11:17:33;;;;;;;5.97;2.60;;;;;;;19.29;35.52;104254.84;5032227;28;20044;-67
2022/03/18 11:20:01;;;;;;;6.45;2.38;;;;;;;19.31;35.74;104252.94;5012856;28;20050;-68
2022/03/18 11:22:29;;;;;;;12.27;6.63;;;;;;;19.40;35.51;104257.03;5016100;28;20061;-66
2022/03/18 11:24:58;;;;;;;6.47;3.70;;;;;;;19.47;35.80;104258.44;5035187;28;20145;-67
2022/03/18 11:27:24;;;;;;;6.97;2.58;;;;;;;19.61;35.41;104254.03;5023831;28;20046;-67
2022/03/18 11:30:16;;;;;;;5.82;2.20;;;;;;;19.70;34.86;104247.19;5036260;28;20376;-66
2022/03/18 11:32:43;;;;;;;10.43;2.90;;;;;;;19.84;34.79;104249.13;5016385;28;20050;-66
2022/03/18 11:35:09;;;;;;;4.78;2.05;;;;;;;19.90;34.60;104248.78;5024767;28;20038;-66
2022/03/18 11:37:38;;;;;;;6.38;2.30;;;;;;;19.99;34.77;104249.13;5035754;28;20038;-66
2022/03/18 11:40:17;;;;;;;5.18;2.50;;;;;;;20.15;34.22;104249.16;5017364;28;20472;-66
2022/03/18 11:42:45;;;;;;;5.90;2.40;;;;;;;20.26;33.89;104249.41;5035413;28;20055;-66
2022/03/18 11:45:32;;;;;;;6.85;2.92;;;;;;;20.36;33.94;104251.59;5035615;28;20124;-67
2022/03/18 11:47:59;;;;;;;4.07;2.30;;;;;;;20.50;33.98;104243.50;5035101;28;20476;-67
2022/03/18 11:50:41;;;;;;;4.53;2.65;;;;;;;20.66;33.70;104246.19;5017932;28;20052;-66
2022/03/18 11:53:12;;;;;;;7.13;3.10;;;;;;;20.75;33.29;104249.25;5017644;28;20052;-67
2022/03/18 11:55:39;;;;;;;7.03;2.28;;;;;;;20.81;33.08;104240.72;5035191;28;20103;-66
2022/03/18 11:58:30;;;;;;;6.30;2.17;;;;;;;20.93;33.00;104250.00;5034547;28;20502;-66
2022/03/18 12:00:56;;;;;;;5.20;2.90;;;;;;;20.98;32.71;104233.34;5042437;28;20042;-66